sensor_id;sensor_type;location;lat;lon;timestamp;temperature;humidity
62583;DHT22;48641;51.676;5.808;2023-03-14T00:01:20;15.20;64.90
62583;DHT22;48641;51.676;5.808;2023-03-14T00:03:46;15.10;64.80
62583;DHT22;48641;51.676;5.808;2023-03-14T00:06:12;15.10;64.90
62583;DHT22;48641;51.676;5.808;2023-03-14T00:08:39;15.10;64.80
62583;DHT22;48641;51.676;5.808;2023-03-14T00:11:13;15.10;64.80
62583;DHT22;48641;51.676;5.808;2023-03-14T00:13:39;15.10;64.80
62583;DHT22;48641;51.676;5.808;2023-03-14T00:16:11;15.10;64.80
62583;DHT22;48641;51.676;5.808;2023-03-14T00:18:38;15.10;64.70
62583;DHT22;48641;51.676;5.808;2023-03-14T00:21:06;15.10;64.70
62583;DHT22;48641;51.676;5.808;2023-03-14T00:23:34;15.10;64.70
62583;DHT22;48641;51.676;5.808;2023-03-14T00:26:12;15.10;64.70
62583;DHT22;48641;51.676;5.808;2023-03-14T00:28:38;15.10;64.70
62583;DHT22;48641;51.676;5.808;2023-03-14T00:31:06;15.10;64.80
62583;DHT22;48641;51.676;5.808;2023-03-14T00:33:32;15.10;64.70
62583;DHT22;48641;51.676;5.808;2023-03-14T00:36:00;15.10;64.80
62583;DHT22;48641;51.676;5.808;2023-03-14T00:38:27;15.10;64.80
62583;DHT22;48641;51.676;5.808;2023-03-14T00:40:53;15.10;64.90
62583;DHT22;48641;51.676;5.808;2023-03-14T00:43:20;15.10;64.90
62583;DHT22;48641;51.676;5.808;2023-03-14T00:45:48;15.10;64.90
62583;DHT22;48641;51.676;5.808;2023-03-14T00:48:13;15.10;65.00
62583;DHT22;48641;51.676;5.808;2023-03-14T00:50:39;15.10;65.00
62583;DHT22;48641;51.676;5.808;2023-03-14T00:53:05;15.10;65.00
62583;DHT22;48641;51.676;5.808;2023-03-14T00:55:30;15.10;65.00
62583;DHT22;48641;51.676;5.808;2023-03-14T00:57:56;15.10;64.90
62583;DHT22;48641;51.676;5.808;2023-03-14T01:00:22;15.10;64.90
62583;DHT22;48641;51.676;5.808;2023-03-14T01:02:47;15.00;64.80
62583;DHT22;48641;51.676;5.808;2023-03-14T01:05:13;15.10;64.80
62583;DHT22;48641;51.676;5.808;2023-03-14T01:07:39;15.00;64.90
62583;DHT22;48641;51.676;5.808;2023-03-14T01:10:05;15.10;64.90
62583;DHT22;48641;51.676;5.808;2023-03-14T01:12:31;15.00;64.90
62583;DHT22;48641;51.676;5.808;2023-03-14T01:14:57;15.10;64.90
62583;DHT22;48641;51.676;5.808;2023-03-14T01:17:23;15.00;65.00
62583;DHT22;48641;51.676;5.808;2023-03-14T01:19:48;15.00;64.90
62583;DHT22;48641;51.676;5.808;2023-03-14T01:22:14;15.10;64.90
62583;DHT22;48641;51.676;5.808;2023-03-14T01:24:40;15.00;65.00
62583;DHT22;48641;51.676;5.808;2023-03-14T01:27:05;15.00;64.90
62583;DHT22;48641;51.676;5.808;2023-03-14T01:29:31;15.00;64.90
62583;DHT22;48641;51.676;5.808;2023-03-14T01:31:57;15.00;65.00
62583;DHT22;48641;51.676;5.808;2023-03-14T01:34:22;15.00;65.00
62583;DHT22;48641;51.676;5.808;2023-03-14T01:36:48;15.00;65.00
62583;DHT22;48641;51.676;5.808;2023-03-14T01:39:13;15.00;66.00
62583;DHT22;48641;51.676;5.808;2023-03-14T01:41:39;15.00;65.00
62583;DHT22;48641;51.676;5.808;2023-03-14T01:44:09;15.00;65.10
62583;DHT22;48641;51.676;5.808;2023-03-14T01:46:39;15.00;65.00
62583;DHT22;48641;51.676;5.808;2023-03-14T01:52:06;15.00;65.00
62583;DHT22;48641;51.676;5.808;2023-03-14T01:54:39;15.00;65.10
62583;DHT22;48641;51.676;5.808;2023-03-14T01:57:15;15.00;65.10
62583;DHT22;48641;51.676;5.808;2023-03-14T01:59:48;15.00;65.20
62583;DHT22;48641;51.676;5.808;2023-03-14T02:02:16;15.00;65.20
62583;DHT22;48641;51.676;5.808;2023-03-14T02:04:42;15.00;65.20
62583;DHT22;48641;51.676;5.808;2023-03-14T02:07:10;15.00;65.20
62583;DHT22;48641;51.676;5.808;2023-03-14T02:09:39;15.00;65.20
62583;DHT22;48641;51.676;5.808;2023-03-14T02:12:06;15.00;65.20
62583;DHT22;48641;51.676;5.808;2023-03-14T02:14:34;15.00;65.20
62583;DHT22;48641;51.676;5.808;2023-03-14T02:17:03;15.00;65.20
62583;DHT22;48641;51.676;5.808;2023-03-14T02:19:57;15.00;65.20
62583;DHT22;48641;51.676;5.808;2023-03-14T02:22:26;15.00;65.20
62583;DHT22;48641;51.676;5.808;2023-03-14T02:27:49;15.00;65.20
62583;DHT22;48641;51.676;5.808;2023-03-14T02:30:21;15.00;65.20
62583;DHT22;48641;51.676;5.808;2023-03-14T02:32:49;15.00;65.20
62583;DHT22;48641;51.676;5.808;2023-03-14T02:35:27;15.00;65.20
62583;DHT22;48641;51.676;5.808;2023-03-14T02:40:23;14.90;65.20
62583;DHT22;48641;51.676;5.808;2023-03-14T02:42:49;15.00;65.20
62583;DHT22;48641;51.676;5.808;2023-03-14T02:47:44;15.00;65.20
62583;DHT22;48641;51.676;5.808;2023-03-14T02:50:15;15.00;65.10
62583;DHT22;48641;51.676;5.808;2023-03-14T02:52:41;15.00;65.20
62583;DHT22;48641;51.676;5.808;2023-03-14T02:55:07;15.00;65.10
62583;DHT22;48641;51.676;5.808;2023-03-14T02:57:33;14.90;65.10
62583;DHT22;48641;51.676;5.808;2023-03-14T03:00:00;15.00;65.10
62583;DHT22;48641;51.676;5.808;2023-03-14T03:02:27;15.00;65.00
62583;DHT22;48641;51.676;5.808;2023-03-14T03:04:52;15.00;65.00
62583;DHT22;48641;51.676;5.808;2023-03-14T03:07:18;15.00;64.90
62583;DHT22;48641;51.676;5.808;2023-03-14T03:09:44;14.90;64.90
62583;DHT22;48641;51.676;5.808;2023-03-14T03:12:10;15.00;65.80
62583;DHT22;48641;51.676;5.808;2023-03-14T03:14:36;15.00;64.90
62583;DHT22;48641;51.676;5.808;2023-03-14T03:17:03;15.00;64.80
62583;DHT22;48641;51.676;5.808;2023-03-14T03:19:30;15.00;64.70
62583;DHT22;48641;51.676;5.808;2023-03-14T03:21:55;14.90;64.70
62583;DHT22;48641;51.676;5.808;2023-03-14T03:24:21;15.00;64.70
62583;DHT22;48641;51.676;5.808;2023-03-14T03:26:46;15.00;64.80
62583;DHT22;48641;51.676;5.808;2023-03-14T03:29:12;14.90;64.70
62583;DHT22;48641;51.676;5.808;2023-03-14T03:31:38;14.90;64.70
62583;DHT22;48641;51.676;5.808;2023-03-14T03:34:04;14.90;64.80
62583;DHT22;48641;51.676;5.808;2023-03-14T03:36:30;14.90;64.80
62583;DHT22;48641;51.676;5.808;2023-03-14T03:38:56;14.90;64.70
62583;DHT22;48641;51.676;5.808;2023-03-14T03:41:21;14.90;64.70
62583;DHT22;48641;51.676;5.808;2023-03-14T03:43:47;14.90;64.70
62583;DHT22;48641;51.676;5.808;2023-03-14T03:46:12;14.90;64.70
62583;DHT22;48641;51.676;5.808;2023-03-14T03:48:38;14.90;64.70
62583;DHT22;48641;51.676;5.808;2023-03-14T03:51:04;14.90;64.70
62583;DHT22;48641;51.676;5.808;2023-03-14T03:53:30;14.90;64.60
62583;DHT22;48641;51.676;5.808;2023-03-14T03:55:55;14.90;64.60
62583;DHT22;48641;51.676;5.808;2023-03-14T03:58:21;14.90;64.70
62583;DHT22;48641;51.676;5.808;2023-03-14T04:00:46;14.90;64.60
62583;DHT22;48641;51.676;5.808;2023-03-14T04:03:12;14.90;64.70
62583;DHT22;48641;51.676;5.808;2023-03-14T04:05:37;14.90;64.70
62583;DHT22;48641;51.676;5.808;2023-03-14T04:08:04;14.90;64.70
62583;DHT22;48641;51.676;5.808;2023-03-14T04:10:33;14.90;64.70
62583;DHT22;48641;51.676;5.808;2023-03-14T04:12:59;14.90;64.70
62583;DHT22;48641;51.676;5.808;2023-03-14T04:15:24;14.90;64.70
62583;DHT22;48641;51.676;5.808;2023-03-14T04:17:50;14.90;64.70
62583;DHT22;48641;51.676;5.808;2023-03-14T04:20:15;14.90;64.70
62583;DHT22;48641;51.676;5.808;2023-03-14T04:22:41;14.90;64.70
62583;DHT22;48641;51.676;5.808;2023-03-14T04:25:07;14.90;64.70
62583;DHT22;48641;51.676;5.808;2023-03-14T04:27:33;14.90;64.80
62583;DHT22;48641;51.676;5.808;2023-03-14T04:29:58;14.90;64.70
62583;DHT22;48641;51.676;5.808;2023-03-14T04:32:24;14.90;65.70
62583;DHT22;48641;51.676;5.808;2023-03-14T04:34:49;14.80;64.60
62583;DHT22;48641;51.676;5.808;2023-03-14T04:37:15;14.90;64.70
62583;DHT22;48641;51.676;5.808;2023-03-14T04:39:41;14.90;64.80
62583;DHT22;48641;51.676;5.808;2023-03-14T04:42:06;14.90;64.80
62583;DHT22;48641;51.676;5.808;2023-03-14T04:44:32;14.90;64.70
62583;DHT22;48641;51.676;5.808;2023-03-14T04:46:58;14.90;64.70
62583;DHT22;48641;51.676;5.808;2023-03-14T04:49:23;14.90;64.70
62583;DHT22;48641;51.676;5.808;2023-03-14T04:51:49;14.90;64.70
62583;DHT22;48641;51.676;5.808;2023-03-14T04:54:17;14.90;65.60
62583;DHT22;48641;51.676;5.808;2023-03-14T04:56:42;14.80;64.50
62583;DHT22;48641;51.676;5.808;2023-03-14T04:59:08;14.90;64.60
62583;DHT22;48641;51.676;5.808;2023-03-14T05:01:34;14.90;64.50
62583;DHT22;48641;51.676;5.808;2023-03-14T05:04:00;14.90;64.60
62583;DHT22;48641;51.676;5.808;2023-03-14T05:06:25;14.90;64.60
62583;DHT22;48641;51.676;5.808;2023-03-14T05:08:51;14.80;64.50
62583;DHT22;48641;51.676;5.808;2023-03-14T05:11:17;14.80;64.50
62583;DHT22;48641;51.676;5.808;2023-03-14T05:13:43;14.80;64.40
62583;DHT22;48641;51.676;5.808;2023-03-14T05:16:10;14.80;64.50
62583;DHT22;48641;51.676;5.808;2023-03-14T05:18:36;14.90;64.60
62583;DHT22;48641;51.676;5.808;2023-03-14T05:21:03;14.80;64.50
62583;DHT22;48641;51.676;5.808;2023-03-14T05:23:29;14.80;64.50
62583;DHT22;48641;51.676;5.808;2023-03-14T05:25:55;14.80;64.50
62583;DHT22;48641;51.676;5.808;2023-03-14T05:28:20;14.80;64.50
62583;DHT22;48641;51.676;5.808;2023-03-14T05:30:46;14.80;64.50
62583;DHT22;48641;51.676;5.808;2023-03-14T05:33:12;14.80;64.50
62583;DHT22;48641;51.676;5.808;2023-03-14T05:35:37;14.80;64.40
62583;DHT22;48641;51.676;5.808;2023-03-14T05:38:03;14.80;64.40
62583;DHT22;48641;51.676;5.808;2023-03-14T05:40:29;14.80;64.40
62583;DHT22;48641;51.676;5.808;2023-03-14T05:42:54;14.80;64.30
62583;DHT22;48641;51.676;5.808;2023-03-14T05:45:20;14.80;64.40
62583;DHT22;48641;51.676;5.808;2023-03-14T05:47:45;14.80;64.40
62583;DHT22;48641;51.676;5.808;2023-03-14T05:50:11;14.80;64.40
62583;DHT22;48641;51.676;5.808;2023-03-14T05:52:37;14.80;64.30
62583;DHT22;48641;51.676;5.808;2023-03-14T05:55:03;14.80;64.40
62583;DHT22;48641;51.676;5.808;2023-03-14T05:57:29;14.80;64.40
62583;DHT22;48641;51.676;5.808;2023-03-14T05:59:54;14.80;64.50
62583;DHT22;48641;51.676;5.808;2023-03-14T06:02:20;14.80;64.40
62583;DHT22;48641;51.676;5.808;2023-03-14T06:04:46;14.80;64.40
62583;DHT22;48641;51.676;5.808;2023-03-14T06:07:11;14.80;64.40
62583;DHT22;48641;51.676;5.808;2023-03-14T06:09:37;14.80;64.50
62583;DHT22;48641;51.676;5.808;2023-03-14T06:12:03;14.80;64.40
62583;DHT22;48641;51.676;5.808;2023-03-14T06:14:29;14.80;64.40
62583;DHT22;48641;51.676;5.808;2023-03-14T06:16:54;14.80;64.30
62583;DHT22;48641;51.676;5.808;2023-03-14T06:19:20;14.80;64.40
62583;DHT22;48641;51.676;5.808;2023-03-14T06:21:46;14.80;64.30
62583;DHT22;48641;51.676;5.808;2023-03-14T06:24:15;14.80;64.30
62583;DHT22;48641;51.676;5.808;2023-03-14T06:26:41;14.80;65.30
62583;DHT22;48641;51.676;5.808;2023-03-14T06:29:06;14.70;65.20
62583;DHT22;48641;51.676;5.808;2023-03-14T06:31:32;14.70;64.40
62583;DHT22;48641;51.676;5.808;2023-03-14T06:33:58;14.70;64.30
62583;DHT22;48641;51.676;5.808;2023-03-14T06:36:24;14.80;64.40
62583;DHT22;48641;51.676;5.808;2023-03-14T06:38:50;14.80;64.30
62583;DHT22;48641;51.676;5.808;2023-03-14T06:41:15;14.80;64.30
62583;DHT22;48641;51.676;5.808;2023-03-14T06:43:41;14.80;64.30
62583;DHT22;48641;51.676;5.808;2023-03-14T06:46:07;14.80;64.20
62583;DHT22;48641;51.676;5.808;2023-03-14T06:48:33;14.80;64.20
62583;DHT22;48641;51.676;5.808;2023-03-14T06:50:58;14.80;64.30
62583;DHT22;48641;51.676;5.808;2023-03-14T06:53:24;14.80;64.30
62583;DHT22;48641;51.676;5.808;2023-03-14T06:55:50;14.80;64.20
62583;DHT22;48641;51.676;5.808;2023-03-14T06:58:15;14.80;64.20
62583;DHT22;48641;51.676;5.808;2023-03-14T07:00:41;14.80;64.20
62583;DHT22;48641;51.676;5.808;2023-03-14T07:03:08;14.80;64.30
62583;DHT22;48641;51.676;5.808;2023-03-14T07:05:34;14.80;65.20
62583;DHT22;48641;51.676;5.808;2023-03-14T07:07:59;14.80;64.30
62583;DHT22;48641;51.676;5.808;2023-03-14T07:10:25;14.80;64.30
62583;DHT22;48641;51.676;5.808;2023-03-14T07:12:50;14.70;64.20
62583;DHT22;48641;51.676;5.808;2023-03-14T07:15:17;14.70;64.20
62583;DHT22;48641;51.676;5.808;2023-03-14T07:17:43;14.70;64.20
62583;DHT22;48641;51.676;5.808;2023-03-14T07:20:09;14.80;64.30
62583;DHT22;48641;51.676;5.808;2023-03-14T07:22:35;14.70;64.40
62583;DHT22;48641;51.676;5.808;2023-03-14T07:25:01;14.70;64.30
62583;DHT22;48641;51.676;5.808;2023-03-14T07:27:26;14.70;64.40
62583;DHT22;48641;51.676;5.808;2023-03-14T07:29:52;14.70;64.30
62583;DHT22;48641;51.676;5.808;2023-03-14T07:32:17;14.70;64.30
62583;DHT22;48641;51.676;5.808;2023-03-14T07:34:43;14.70;64.30
62583;DHT22;48641;51.676;5.808;2023-03-14T07:37:09;14.70;64.30
62583;DHT22;48641;51.676;5.808;2023-03-14T07:39:34;14.70;64.30
62583;DHT22;48641;51.676;5.808;2023-03-14T07:42:00;14.70;64.30
62583;DHT22;48641;51.676;5.808;2023-03-14T07:44:26;14.70;64.30
62583;DHT22;48641;51.676;5.808;2023-03-14T07:46:52;14.70;64.40
62583;DHT22;48641;51.676;5.808;2023-03-14T07:49:18;14.70;64.50
62583;DHT22;48641;51.676;5.808;2023-03-14T07:51:43;14.70;64.50
62583;DHT22;48641;51.676;5.808;2023-03-14T07:54:10;14.70;64.60
62583;DHT22;48641;51.676;5.808;2023-03-14T07:56:35;14.70;64.70
62583;DHT22;48641;51.676;5.808;2023-03-14T07:59:01;14.70;64.50
62583;DHT22;48641;51.676;5.808;2023-03-14T08:01:27;14.70;64.50
62583;DHT22;48641;51.676;5.808;2023-03-14T08:03:52;14.70;64.50
62583;DHT22;48641;51.676;5.808;2023-03-14T08:06:18;14.70;64.30
62583;DHT22;48641;51.676;5.808;2023-03-14T08:08:44;14.70;64.40
62583;DHT22;48641;51.676;5.808;2023-03-14T08:11:09;14.70;64.50
62583;DHT22;48641;51.676;5.808;2023-03-14T08:13:36;14.70;64.50
62583;DHT22;48641;51.676;5.808;2023-03-14T08:16:02;14.70;64.50
62583;DHT22;48641;51.676;5.808;2023-03-14T08:18:27;14.70;64.40
62583;DHT22;48641;51.676;5.808;2023-03-14T08:20:53;14.70;64.30
62583;DHT22;48641;51.676;5.808;2023-03-14T08:23:19;14.70;64.40
62583;DHT22;48641;51.676;5.808;2023-03-14T08:25:44;14.70;64.50
62583;DHT22;48641;51.676;5.808;2023-03-14T08:28:10;14.70;64.50
62583;DHT22;48641;51.676;5.808;2023-03-14T08:30:35;14.70;64.50
62583;DHT22;48641;51.676;5.808;2023-03-14T08:33:01;14.70;64.50
62583;DHT22;48641;51.676;5.808;2023-03-14T08:35:27;14.70;64.50
62583;DHT22;48641;51.676;5.808;2023-03-14T08:37:53;14.70;64.50
62583;DHT22;48641;51.676;5.808;2023-03-14T08:40:19;14.70;64.50
62583;DHT22;48641;51.676;5.808;2023-03-14T08:42:45;14.70;64.50
62583;DHT22;48641;51.676;5.808;2023-03-14T08:45:13;14.70;64.50
62583;DHT22;48641;51.676;5.808;2023-03-14T08:47:39;14.70;64.50
62583;DHT22;48641;51.676;5.808;2023-03-14T08:50:06;14.70;64.50
62583;DHT22;48641;51.676;5.808;2023-03-14T08:52:32;14.70;64.50
62583;DHT22;48641;51.676;5.808;2023-03-14T08:54:58;14.70;64.50
62583;DHT22;48641;51.676;5.808;2023-03-14T08:57:24;14.70;64.50
62583;DHT22;48641;51.676;5.808;2023-03-14T08:59:53;14.70;64.60
62583;DHT22;48641;51.676;5.808;2023-03-14T09:02:20;14.70;64.50
62583;DHT22;48641;51.676;5.808;2023-03-14T09:04:46;14.70;64.50
62583;DHT22;48641;51.676;5.808;2023-03-14T09:07:11;14.70;64.50
62583;DHT22;48641;51.676;5.808;2023-03-14T09:09:37;14.70;64.50
62583;DHT22;48641;51.676;5.808;2023-03-14T09:12:03;14.70;64.40
62583;DHT22;48641;51.676;5.808;2023-03-14T09:14:30;14.70;64.50
62583;DHT22;48641;51.676;5.808;2023-03-14T09:16:55;14.70;64.30
62583;DHT22;48641;51.676;5.808;2023-03-14T09:19:21;14.70;64.70
62583;DHT22;48641;51.676;5.808;2023-03-14T09:21:46;14.70;64.60
62583;DHT22;48641;51.676;5.808;2023-03-14T09:24:12;14.70;64.50
62583;DHT22;48641;51.676;5.808;2023-03-14T09:26:38;14.70;64.40
62583;DHT22;48641;51.676;5.808;2023-03-14T09:29:03;14.70;64.30
62583;DHT22;48641;51.676;5.808;2023-03-14T09:31:29;14.70;64.30
62583;DHT22;48641;51.676;5.808;2023-03-14T09:33:55;14.70;64.30
62583;DHT22;48641;51.676;5.808;2023-03-14T09:36:21;14.70;64.30
62583;DHT22;48641;51.676;5.808;2023-03-14T09:38:46;14.70;64.40
62583;DHT22;48641;51.676;5.808;2023-03-14T09:41:22;14.70;64.50
62583;DHT22;48641;51.676;5.808;2023-03-14T09:43:52;14.70;64.40
62583;DHT22;48641;51.676;5.808;2023-03-14T09:46:20;14.70;64.50
62583;DHT22;48641;51.676;5.808;2023-03-14T09:48:46;14.70;64.50
62583;DHT22;48641;51.676;5.808;2023-03-14T09:51:17;14.70;64.50
62583;DHT22;48641;51.676;5.808;2023-03-14T09:53:47;14.70;64.60
62583;DHT22;48641;51.676;5.808;2023-03-14T09:56:27;14.70;64.60
62583;DHT22;48641;51.676;5.808;2023-03-14T09:58:59;14.70;64.60
62583;DHT22;48641;51.676;5.808;2023-03-14T10:01:28;14.70;64.60
62583;DHT22;48641;51.676;5.808;2023-03-14T10:03:55;14.70;64.70
62583;DHT22;48641;51.676;5.808;2023-03-14T10:06:24;14.70;64.60
62583;DHT22;48641;51.676;5.808;2023-03-14T10:08:51;14.70;64.70
62583;DHT22;48641;51.676;5.808;2023-03-14T10:11:18;14.70;64.70
62583;DHT22;48641;51.676;5.808;2023-03-14T10:13:50;14.70;64.60
62583;DHT22;48641;51.676;5.808;2023-03-14T10:16:16;14.70;64.60
62583;DHT22;48641;51.676;5.808;2023-03-14T10:18:45;14.70;64.50
62583;DHT22;48641;51.676;5.808;2023-03-14T10:21:28;14.70;64.70
62583;DHT22;48641;51.676;5.808;2023-03-14T10:23:54;14.70;64.60
62583;DHT22;48641;51.676;5.808;2023-03-14T10:26:29;14.60;64.70
62583;DHT22;48641;51.676;5.808;2023-03-14T10:29:12;14.60;64.60
62583;DHT22;48641;51.676;5.808;2023-03-14T10:34:25;14.60;64.60
62583;DHT22;48641;51.676;5.808;2023-03-14T10:36:59;14.60;64.60
62583;DHT22;48641;51.676;5.808;2023-03-14T10:41:54;14.60;64.60
62583;DHT22;48641;51.676;5.808;2023-03-14T10:44:21;14.60;64.60
62583;DHT22;48641;51.676;5.808;2023-03-14T10:46:56;14.60;64.60
62583;DHT22;48641;51.676;5.808;2023-03-14T10:49:36;14.60;64.80
62583;DHT22;48641;51.676;5.808;2023-03-14T10:54:39;14.60;64.80
62583;DHT22;48641;51.676;5.808;2023-03-14T10:57:05;14.60;64.70
62583;DHT22;48641;51.676;5.808;2023-03-14T10:59:37;14.60;65.70
62583;DHT22;48641;51.676;5.808;2023-03-14T11:02:42;14.60;64.70
62583;DHT22;48641;51.676;5.808;2023-03-14T11:07:52;14.60;64.70
62583;DHT22;48641;51.676;5.808;2023-03-14T11:10:40;14.50;64.90
62583;DHT22;48641;51.676;5.808;2023-03-14T11:13:15;14.50;64.80
62583;DHT22;48641;51.676;5.808;2023-03-14T11:16:20;14.50;64.80
62583;DHT22;48641;51.676;5.808;2023-03-14T11:19:39;14.50;64.60
62583;DHT22;48641;51.676;5.808;2023-03-14T11:22:11;14.60;64.60
62583;DHT22;48641;51.676;5.808;2023-03-14T11:27:26;14.50;64.70
62583;DHT22;48641;51.676;5.808;2023-03-14T11:30:13;14.60;64.70
62583;DHT22;48641;51.676;5.808;2023-03-14T11:32:46;14.60;64.60
62583;DHT22;48641;51.676;5.808;2023-03-14T11:35:34;14.60;65.60
62583;DHT22;48641;51.676;5.808;2023-03-14T11:38:10;14.60;65.40
62583;DHT22;48641;51.676;5.808;2023-03-14T11:40:38;14.60;64.60
62583;DHT22;48641;51.676;5.808;2023-03-14T11:45:56;14.60;64.50
62583;DHT22;48641;51.676;5.808;2023-03-14T11:49:11;14.60;64.50
62583;DHT22;48641;51.676;5.808;2023-03-14T11:51:43;14.60;64.40
62583;DHT22;48641;51.676;5.808;2023-03-14T11:54:24;14.60;64.60
62583;DHT22;48641;51.676;5.808;2023-03-14T11:57:05;14.60;64.50
62583;DHT22;48641;51.676;5.808;2023-03-14T12:10:45;14.60;64.40
62583;DHT22;48641;51.676;5.808;2023-03-14T12:13:22;14.60;64.60
62583;DHT22;48641;51.676;5.808;2023-03-14T12:15:55;14.60;65.20
62583;DHT22;48641;51.676;5.808;2023-03-14T12:18:30;14.70;65.00
62583;DHT22;48641;51.676;5.808;2023-03-14T12:21:00;14.70;64.60
62583;DHT22;48641;51.676;5.808;2023-03-14T12:23:51;14.70;65.60
62583;DHT22;48641;51.676;5.808;2023-03-14T12:26:23;14.80;64.80
62583;DHT22;48641;51.676;5.808;2023-03-14T12:39:33;14.80;64.60
62583;DHT22;48641;51.676;5.808;2023-03-14T12:42:11;14.80;64.20
62583;DHT22;48641;51.676;5.808;2023-03-14T12:49:45;14.80;64.20
62583;DHT22;48641;51.676;5.808;2023-03-14T12:52:36;14.80;64.00
62583;DHT22;48641;51.676;5.808;2023-03-14T12:57:45;14.90;63.70
62583;DHT22;48641;51.676;5.808;2023-03-14T13:00:21;14.90;63.70
62583;DHT22;48641;51.676;5.808;2023-03-14T13:02:49;14.90;63.80
62583;DHT22;48641;51.676;5.808;2023-03-14T13:05:18;14.90;63.70
62583;DHT22;48641;51.676;5.808;2023-03-14T13:12:53;14.90;63.70
62583;DHT22;48641;51.676;5.808;2023-03-14T13:17:56;14.90;63.60
62583;DHT22;48641;51.676;5.808;2023-03-14T13:20:31;14.90;63.60
62583;DHT22;48641;51.676;5.808;2023-03-14T13:22:57;15.00;63.50
62583;DHT22;48641;51.676;5.808;2023-03-14T13:25:23;14.90;63.50
62583;DHT22;48641;51.676;5.808;2023-03-14T13:27:52;15.00;64.40
62583;DHT22;48641;51.676;5.808;2023-03-14T13:30:27;15.00;63.50
62583;DHT22;48641;51.676;5.808;2023-03-14T13:32:53;14.90;63.00
62583;DHT22;48641;51.676;5.808;2023-03-14T13:35:28;14.90;63.20
62583;DHT22;48641;51.676;5.808;2023-03-14T13:37:59;15.00;63.30
62583;DHT22;48641;51.676;5.808;2023-03-14T13:40:30;15.00;63.40
62583;DHT22;48641;51.676;5.808;2023-03-14T13:43:02;14.90;63.30
62583;DHT22;48641;51.676;5.808;2023-03-14T13:45:29;15.00;63.40
62583;DHT22;48641;51.676;5.808;2023-03-14T13:47:55;15.00;63.30
62583;DHT22;48641;51.676;5.808;2023-03-14T13:50:21;15.00;63.30
62583;DHT22;48641;51.676;5.808;2023-03-14T13:52:46;15.00;63.20
62583;DHT22;48641;51.676;5.808;2023-03-14T13:55:18;15.00;63.30
62583;DHT22;48641;51.676;5.808;2023-03-14T13:57:49;15.00;63.10
62583;DHT22;48641;51.676;5.808;2023-03-14T14:00:25;15.00;63.10
62583;DHT22;48641;51.676;5.808;2023-03-14T14:02:56;15.00;63.20
62583;DHT22;48641;51.676;5.808;2023-03-14T14:05:26;15.10;63.30
62583;DHT22;48641;51.676;5.808;2023-03-14T14:07:52;15.10;63.30
62583;DHT22;48641;51.676;5.808;2023-03-14T14:10:19;15.10;63.30
62583;DHT22;48641;51.676;5.808;2023-03-14T14:13:01;15.10;63.20
62583;DHT22;48641;51.676;5.808;2023-03-14T14:15:29;15.10;63.10
62583;DHT22;48641;51.676;5.808;2023-03-14T14:18:04;15.10;63.20
62583;DHT22;48641;51.676;5.808;2023-03-14T14:20:41;15.10;63.10
62583;DHT22;48641;51.676;5.808;2023-03-14T14:23:20;15.20;63.10
62583;DHT22;48641;51.676;5.808;2023-03-14T14:25:51;15.20;63.10
62583;DHT22;48641;51.676;5.808;2023-03-14T14:36:38;15.10;63.10
62583;DHT22;48641;51.676;5.808;2023-03-14T14:39:33;15.10;63.20
62583;DHT22;48641;51.676;5.808;2023-03-14T14:41:58;15.10;63.10
62583;DHT22;48641;51.676;5.808;2023-03-14T14:44:30;15.10;63.20
62583;DHT22;48641;51.676;5.808;2023-03-14T14:46:57;15.10;63.10
62583;DHT22;48641;51.676;5.808;2023-03-14T14:49:32;15.10;63.10
62583;DHT22;48641;51.676;5.808;2023-03-14T14:52:06;15.10;63.10
62583;DHT22;48641;51.676;5.808;2023-03-14T14:54:34;15.10;63.10
62583;DHT22;48641;51.676;5.808;2023-03-14T14:57:04;15.10;63.10
62583;DHT22;48641;51.676;5.808;2023-03-14T14:59:30;15.00;63.10
62583;DHT22;48641;51.676;5.808;2023-03-14T15:01:58;15.10;63.20
62583;DHT22;48641;51.676;5.808;2023-03-14T15:04:25;15.10;63.40
62583;DHT22;48641;51.676;5.808;2023-03-14T15:06:51;15.00;63.20
62583;DHT22;48641;51.676;5.808;2023-03-14T15:09:18;15.10;63.40
62583;DHT22;48641;51.676;5.808;2023-03-14T15:11:45;15.00;63.40
62583;DHT22;48641;51.676;5.808;2023-03-14T15:14:11;15.00;63.50
62583;DHT22;48641;51.676;5.808;2023-03-14T15:16:38;15.00;63.60
62583;DHT22;48641;51.676;5.808;2023-03-14T15:19:23;15.00;63.50
62583;DHT22;48641;51.676;5.808;2023-03-14T15:21:50;15.00;63.50
62583;DHT22;48641;51.676;5.808;2023-03-14T15:24:16;15.00;63.40
62583;DHT22;48641;51.676;5.808;2023-03-14T15:26:41;15.00;63.40
62583;DHT22;48641;51.676;5.808;2023-03-14T15:29:11;15.00;62.80
62583;DHT22;48641;51.676;5.808;2023-03-14T15:31:38;15.00;62.20
62583;DHT22;48641;51.676;5.808;2023-03-14T15:34:04;15.10;62.40
62583;DHT22;48641;51.676;5.808;2023-03-14T15:36:32;15.10;62.30
62583;DHT22;48641;51.676;5.808;2023-03-14T15:38:59;15.10;62.40
62583;DHT22;48641;51.676;5.808;2023-03-14T16:51:47;14.80;63.10
62583;DHT22;48641;51.676;5.808;2023-03-14T16:54:12;14.80;63.10
62583;DHT22;48641;51.676;5.808;2023-03-14T16:56:38;14.70;63.10
62583;DHT22;48641;51.676;5.808;2023-03-14T16:59:04;14.80;63.10
62583;DHT22;48641;51.676;5.808;2023-03-14T17:01:29;14.80;63.00
62583;DHT22;48641;51.676;5.808;2023-03-14T17:03:55;14.80;62.90
62583;DHT22;48641;51.676;5.808;2023-03-14T17:06:24;14.80;63.90
62583;DHT22;48641;51.676;5.808;2023-03-14T17:08:51;14.80;63.00
62583;DHT22;48641;51.676;5.808;2023-03-14T17:11:17;14.80;63.00
62583;DHT22;48641;51.676;5.808;2023-03-14T17:13:43;14.80;62.90
62583;DHT22;48641;51.676;5.808;2023-03-14T17:16:09;14.80;63.00
62583;DHT22;48641;51.676;5.808;2023-03-14T17:18:35;14.80;62.90
62583;DHT22;48641;51.676;5.808;2023-03-14T17:21:01;14.80;62.70
62583;DHT22;48641;51.676;5.808;2023-03-14T17:23:29;14.80;62.70
62583;DHT22;48641;51.676;5.808;2023-03-14T17:25:55;14.80;62.80
62583;DHT22;48641;51.676;5.808;2023-03-14T17:28:21;14.80;62.70
62583;DHT22;48641;51.676;5.808;2023-03-14T17:30:48;14.80;62.70
62583;DHT22;48641;51.676;5.808;2023-03-14T17:33:14;14.80;62.70
62583;DHT22;48641;51.676;5.808;2023-03-14T17:35:41;14.80;62.70
62583;DHT22;48641;51.676;5.808;2023-03-14T17:38:07;14.80;62.70
62583;DHT22;48641;51.676;5.808;2023-03-14T17:40:33;14.80;62.50
62583;DHT22;48641;51.676;5.808;2023-03-14T17:42:58;14.80;62.50
62583;DHT22;48641;51.676;5.808;2023-03-14T17:45:24;14.80;62.60
62583;DHT22;48641;51.676;5.808;2023-03-14T17:47:50;14.80;62.50
62583;DHT22;48641;51.676;5.808;2023-03-14T17:50:15;14.80;62.50
62583;DHT22;48641;51.676;5.808;2023-03-14T17:52:41;14.80;62.50
62583;DHT22;48641;51.676;5.808;2023-03-14T17:55:07;14.80;62.50
62583;DHT22;48641;51.676;5.808;2023-03-14T17:57:35;14.80;62.50
62583;DHT22;48641;51.676;5.808;2023-03-14T18:00:03;14.80;62.50